createdAt,value
2017-05-17T00:00:49.222Z,2.40
2017-05-17T00:03:17.562Z,3.04
2017-05-17T00:05:45.856Z,2.22
2017-05-17T00:08:14.922Z,2.94
2017-05-17T00:10:43.266Z,2.24
2017-05-17T00:13:11.563Z,3.10
2017-05-17T00:15:39.872Z,3.04
2017-05-17T00:18:08.273Z,2.96
2017-05-17T00:20:37.334Z,2.72
2017-05-17T00:23:05.632Z,2.76
2017-05-17T00:25:33.977Z,3.58
2017-05-17T00:28:02.285Z,3.92
2017-05-17T00:30:30.584Z,3.78
2017-05-17T00:32:59.706Z,3.80
2017-05-17T00:35:45.793Z,3.22
2017-05-17T00:38:31.896Z,3.28
2017-05-17T00:41:18.569Z,3.82
2017-05-17T00:44:05.465Z,5.86
2017-05-17T00:46:51.585Z,5.32
2017-05-17T00:49:38.589Z,5.04
2017-05-17T00:52:10.273Z,5.52
2017-05-17T00:54:38.617Z,4.66
2017-05-17T00:57:07.687Z,4.58
2017-05-17T00:59:35.992Z,3.30
2017-05-17T01:02:05.094Z,3.26
2017-05-17T01:04:34.216Z,3.60
2017-05-17T01:07:02.531Z,4.36
2017-05-17T01:09:30.869Z,3.68
2017-05-17T01:11:59.198Z,3.00
2017-05-17T01:14:27.673Z,3.68
2017-05-17T01:16:56.024Z,2.84
2017-05-17T01:19:24.325Z,2.48
2017-05-17T01:21:52.709Z,3.68
2017-05-17T01:24:21.057Z,3.90
2017-05-17T01:26:49.359Z,2.90
2017-05-17T01:29:17.661Z,3.40
2017-05-17T01:31:46.006Z,3.62
2017-05-17T01:34:14.320Z,3.52
2017-05-17T01:36:42.622Z,3.52
2017-05-17T01:39:10.969Z,3.78
2017-05-17T01:41:39.274Z,3.30
2017-05-17T01:44:08.342Z,3.56
2017-05-17T01:46:36.710Z,3.86
2017-05-17T01:49:05.013Z,3.48
2017-05-17T01:51:34.078Z,3.50
2017-05-17T01:54:02.422Z,3.18
2017-05-17T01:56:30.731Z,3.58
2017-05-17T01:58:59.033Z,3.54
2017-05-17T02:01:27.372Z,3.82
2017-05-17T02:03:55.715Z,3.32
2017-05-17T02:06:24.779Z,3.30
2017-05-17T02:08:53.121Z,3.38
2017-05-17T02:11:21.421Z,4.48
2017-05-17T02:13:49.731Z,3.78
2017-05-17T02:16:18.842Z,3.50
2017-05-17T02:18:47.913Z,3.90
2017-05-17T02:21:17.097Z,3.50
2017-05-17T02:23:45.406Z,3.86
2017-05-17T02:26:13.706Z,3.50
2017-05-17T02:28:42.048Z,3.88
2017-05-17T02:31:11.986Z,3.70
2017-05-17T02:33:40.315Z,3.66
2017-05-17T02:36:08.626Z,3.72
2017-05-17T02:38:37.688Z,3.32
2017-05-17T02:41:07.557Z,3.38
2017-05-17T02:43:35.858Z,3.50
2017-05-17T02:46:04.931Z,3.68
2017-05-17T02:48:33.271Z,3.74
2017-05-17T02:51:02.511Z,3.70
2017-05-17T02:53:30.809Z,4.38
2017-05-17T02:55:59.157Z,3.96
2017-05-17T02:58:27.457Z,3.78
2017-05-17T03:00:55.759Z,3.72
2017-05-17T03:03:25.445Z,4.20
2017-05-17T03:05:53.742Z,3.98
2017-05-17T03:08:22.046Z,3.90
2017-05-17T03:10:51.157Z,3.80
2017-05-17T03:13:20.225Z,3.30
2017-05-17T03:15:48.527Z,3.60
2017-05-17T03:18:17.645Z,4.28
2017-05-17T03:20:45.949Z,4.18
2017-05-17T03:23:14.259Z,4.32
2017-05-17T03:25:42.650Z,3.88
2017-05-17T03:28:11.732Z,3.88
2017-05-17T03:30:40.036Z,3.72
2017-05-17T03:33:08.373Z,3.66
2017-05-17T03:35:36.726Z,3.86
2017-05-17T03:38:05.037Z,3.60
2017-05-17T03:40:34.143Z,4.08
2017-05-17T03:43:02.554Z,3.60
2017-05-17T03:45:31.689Z,4.12
2017-05-17T03:48:00.033Z,3.74
2017-05-17T03:50:29.099Z,4.22
2017-05-17T03:52:58.204Z,3.44
2017-05-17T03:55:27.278Z,3.44
2017-05-17T03:57:55.580Z,4.10
2017-05-17T04:00:23.919Z,4.12
2017-05-17T04:02:52.219Z,3.62
2017-05-17T04:05:21.285Z,3.82
2017-05-17T04:07:50.410Z,4.10
2017-05-17T04:10:19.489Z,3.60
2017-05-17T04:12:47.799Z,2.94
2017-05-17T04:15:16.439Z,3.68
2017-05-17T04:17:44.745Z,3.70
2017-05-17T04:20:13.961Z,4.34
2017-05-17T04:22:43.059Z,4.70
2017-05-17T04:25:11.359Z,4.28
2017-05-17T04:27:39.665Z,4.08
2017-05-17T04:30:08.014Z,3.96
2017-05-17T04:32:37.082Z,4.50
2017-05-17T04:35:05.381Z,4.74
2017-05-17T04:37:33.730Z,4.48
2017-05-17T04:40:02.039Z,4.80
2017-05-17T04:42:31.114Z,4.44
2017-05-17T04:44:59.489Z,4.58
2017-05-17T04:47:28.552Z,5.06
2017-05-17T04:49:56.860Z,4.18
2017-05-17T04:52:25.990Z,4.98
2017-05-17T04:54:55.058Z,5.04
2017-05-17T04:57:23.362Z,4.46
2017-05-17T04:59:52.526Z,5.44
2017-05-17T05:02:20.825Z,4.32
2017-05-17T05:04:49.126Z,4.18
2017-05-17T05:07:18.505Z,3.80
2017-05-17T05:09:47.577Z,5.04
2017-05-17T05:12:15.880Z,3.96
2017-05-17T05:14:44.994Z,4.10
2017-05-17T05:17:13.290Z,4.72
2017-05-17T05:19:42.363Z,4.54
2017-05-17T05:22:10.724Z,4.48
2017-05-17T05:24:39.032Z,4.76
2017-05-17T05:27:07.333Z,4.32
2017-05-17T05:29:36.473Z,4.56
2017-05-17T05:32:04.785Z,4.98
2017-05-17T05:34:33.113Z,4.82
2017-05-17T05:37:01.538Z,4.28
2017-05-17T05:39:29.842Z,4.54
2017-05-17T05:41:58.912Z,4.44
2017-05-17T05:44:27.256Z,4.22
2017-05-17T05:46:55.558Z,4.18
2017-05-17T05:49:23.861Z,4.30
2017-05-17T05:51:52.194Z,4.18
2017-05-17T05:54:20.494Z,4.04
2017-05-17T05:56:49.571Z,4.96
2017-05-17T05:59:17.985Z,3.82
2017-05-17T06:01:47.487Z,4.00
2017-05-17T06:04:17.375Z,3.24
2017-05-17T06:06:45.678Z,3.50
2017-05-17T06:09:13.977Z,3.42
2017-05-17T06:11:43.086Z,4.18
2017-05-17T06:14:12.161Z,3.72
2017-05-17T06:16:40.462Z,3.88
2017-05-17T06:19:08.805Z,4.22
2017-05-17T06:21:37.102Z,3.50
2017-05-17T06:24:06.181Z,3.28
2017-05-17T06:26:35.286Z,3.30
2017-05-17T06:29:04.359Z,3.66
2017-05-17T06:31:32.670Z,3.20
2017-05-17T06:34:01.778Z,3.22
2017-05-17T06:36:30.113Z,3.02
2017-05-17T06:38:58.406Z,3.30
2017-05-17T06:41:26.745Z,2.82
2017-05-17T06:43:55.046Z,3.20
2017-05-17T06:46:23.349Z,3.14
2017-05-17T06:48:52.521Z,3.42
2017-05-17T06:51:21.078Z,3.34
2017-05-17T06:53:49.379Z,3.40
2017-05-17T06:56:17.713Z,3.18
2017-05-17T06:58:46.010Z,3.00
2017-05-17T07:01:14.352Z,3.34
2017-05-17T07:03:43.454Z,2.66
2017-05-17T07:06:11.753Z,2.46
2017-05-17T07:08:40.054Z,3.90
2017-05-17T07:11:09.211Z,3.28
2017-05-17T07:13:38.259Z,2.96
2017-05-17T07:16:06.566Z,3.42
2017-05-17T07:18:35.669Z,2.86
2017-05-17T07:21:04.741Z,3.64
2017-05-17T07:23:33.042Z,2.40
2017-05-17T07:26:02.149Z,3.10
2017-05-17T07:28:30.463Z,3.30
2017-05-17T07:30:58.762Z,3.20
2017-05-17T07:33:27.107Z,2.48
2017-05-17T07:35:55.409Z,2.90
2017-05-17T07:38:25.259Z,3.10
2017-05-17T07:40:54.332Z,2.42
2017-05-17T07:43:22.630Z,2.90
2017-05-17T07:45:51.729Z,2.92
2017-05-17T07:48:20.029Z,2.50
2017-05-17T07:50:48.329Z,2.62
2017-05-17T07:53:16.675Z,2.06
2017-05-17T07:55:44.973Z,2.64
2017-05-17T07:58:13.278Z,2.20
2017-05-17T08:00:41.617Z,2.40
2017-05-17T08:03:09.935Z,2.14
2017-05-17T08:05:38.232Z,2.56
2017-05-17T08:08:07.342Z,2.48
2017-05-17T08:10:36.415Z,2.12
2017-05-17T08:13:04.710Z,2.34
2017-05-17T08:15:33.873Z,1.96
2017-05-17T08:18:02.173Z,2.14
2017-05-17T08:20:31.240Z,2.40
2017-05-17T08:22:59.574Z,1.90
2017-05-17T08:25:27.879Z,2.28
2017-05-17T08:27:56.183Z,2.18
2017-05-17T08:30:24.677Z,1.96
2017-05-17T08:32:52.992Z,2.46
2017-05-17T08:35:21.293Z,2.08
2017-05-17T08:37:49.702Z,2.04
2017-05-17T08:40:18.007Z,2.46
2017-05-17T08:42:47.078Z,2.18
2017-05-17T08:45:16.932Z,2.10
2017-05-17T08:47:45.233Z,2.70
2017-05-17T08:50:13.545Z,1.86
2017-05-17T08:52:41.891Z,1.74
2017-05-17T08:55:10.957Z,2.30
2017-05-17T08:57:39.266Z,2.10
2017-05-17T09:00:08.374Z,2.52
2017-05-17T09:02:37.446Z,1.78
2017-05-17T09:05:05.751Z,2.38
2017-05-17T09:07:34.853Z,1.50
2017-05-17T09:10:03.150Z,1.82
2017-05-17T09:12:31.454Z,1.70
2017-05-17T09:14:59.807Z,1.76
2017-05-17T09:17:28.105Z,2.14
2017-05-17T09:19:56.406Z,2.12
2017-05-17T09:22:24.770Z,1.84
2017-05-17T09:24:53.085Z,1.56
2017-05-17T09:27:21.457Z,1.62
2017-05-17T09:29:49.801Z,1.60
2017-05-17T09:32:18.105Z,2.16
2017-05-17T09:34:47.177Z,2.00
2017-05-17T09:37:15.523Z,1.86
2017-05-17T09:39:43.822Z,1.68
2017-05-17T09:42:12.121Z,2.08
2017-05-17T09:44:40.462Z,1.58
2017-05-17T09:47:08.769Z,1.80
2017-05-17T09:49:37.078Z,4.00
2017-05-17T09:52:06.183Z,2.34
2017-05-17T09:54:34.493Z,1.62
2017-05-17T09:57:02.799Z,2.34
2017-05-17T09:59:31.137Z,1.66
2017-05-17T10:01:59.438Z,2.50
2017-05-17T10:04:27.739Z,2.26
2017-05-17T10:06:56.097Z,1.82
2017-05-17T10:09:24.403Z,1.76
2017-05-17T10:11:52.710Z,1.80
2017-05-17T10:14:21.072Z,2.10
2017-05-17T10:16:50.145Z,2.88
2017-05-17T10:19:18.455Z,3.30
2017-05-17T10:21:46.801Z,6.20
2017-05-17T10:24:15.870Z,2.04
2017-05-17T10:26:44.984Z,2.32
2017-05-17T10:29:13.298Z,2.04
2017-05-17T10:31:41.602Z,2.16
2017-05-17T10:34:09.947Z,2.10
2017-05-17T10:36:38.284Z,1.58
2017-05-17T10:39:06.593Z,1.70
2017-05-17T10:41:34.955Z,1.78
2017-05-17T10:44:03.261Z,2.00
2017-05-17T10:46:31.566Z,2.30
2017-05-17T10:48:59.922Z,1.68
2017-05-17T10:51:28.220Z,2.06
2017-05-17T10:53:56.526Z,2.08
2017-05-17T10:56:25.901Z,1.90
2017-05-17T10:58:54.973Z,1.70
2017-05-17T11:01:23.270Z,1.70
2017-05-17T11:03:51.641Z,1.78
2017-05-17T11:06:19.948Z,2.30
2017-05-17T11:08:49.017Z,1.98
2017-05-17T11:11:17.358Z,1.76
2017-05-17T11:13:45.665Z,1.50
2017-05-17T11:16:13.975Z,1.92
2017-05-17T11:18:43.089Z,2.00
2017-05-17T11:21:11.394Z,2.22
2017-05-17T11:23:39.698Z,1.92
2017-05-17T11:26:08.049Z,2.20
2017-05-17T11:28:36.354Z,1.94
2017-05-17T11:31:04.654Z,1.66
2017-05-17T11:33:33.003Z,2.08
2017-05-17T11:36:02.074Z,1.92
2017-05-17T11:38:30.378Z,1.50
2017-05-17T11:40:58.716Z,1.36
2017-05-17T11:43:27.030Z,2.08
2017-05-17T11:45:55.341Z,1.72
2017-05-17T11:48:23.677Z,1.94
2017-05-17T11:50:52.743Z,1.70
2017-05-17T11:53:21.406Z,1.88
2017-05-17T11:55:49.795Z,1.82
2017-05-17T11:58:18.099Z,2.02
2017-05-17T12:00:47.190Z,2.14
2017-05-17T12:03:15.547Z,1.72
2017-05-17T12:05:43.851Z,1.90
2017-05-17T12:08:12.224Z,1.70
2017-05-17T12:10:40.561Z,2.00
2017-05-17T12:13:08.880Z,1.58
2017-05-17T12:15:37.186Z,1.96
2017-05-17T12:18:06.525Z,1.70
2017-05-17T12:20:34.831Z,1.32
2017-05-17T12:23:03.133Z,1.62
2017-05-17T12:25:32.262Z,2.38
2017-05-17T12:28:00.561Z,1.92
2017-05-17T12:30:28.873Z,2.10
2017-05-17T12:32:57.244Z,1.70
2017-05-17T12:35:25.549Z,1.70
2017-05-17T12:37:54.628Z,1.38
2017-05-17T12:40:22.970Z,1.40
2017-05-17T12:42:51.279Z,2.16
2017-05-17T12:45:19.577Z,1.56
2017-05-17T12:47:48.688Z,1.90
2017-05-17T12:50:17.001Z,2.00
2017-05-17T12:52:45.309Z,1.44
2017-05-17T12:55:13.654Z,1.48
2017-05-17T12:57:41.964Z,2.40
2017-05-17T13:00:10.269Z,1.90
2017-05-17T13:02:38.629Z,1.84
2017-05-17T13:05:07.707Z,2.00
2017-05-17T13:07:36.014Z,1.60
2017-05-17T13:10:04.358Z,1.46
2017-05-17T13:12:34.170Z,1.54
2017-05-17T13:15:02.507Z,2.06
2017-05-17T13:17:31.151Z,1.66
2017-05-17T13:20:00.321Z,1.86
2017-05-17T13:22:28.649Z,1.46
2017-05-17T13:24:56.994Z,2.10
2017-05-17T13:27:25.479Z,1.50
2017-05-17T13:29:53.782Z,1.84
2017-05-17T13:32:22.898Z,1.60
2017-05-17T13:34:51.257Z,1.70
2017-05-17T13:37:20.325Z,1.78
2017-05-17T13:39:50.181Z,1.82
2017-05-17T13:42:18.482Z,1.56
2017-05-17T13:44:46.789Z,2.14
2017-05-17T13:47:16.650Z,2.04
2017-05-17T13:49:44.958Z,2.62
2017-05-17T13:52:13.264Z,1.66
2017-05-17T13:54:41.602Z,1.90
2017-05-17T13:57:09.910Z,2.16
2017-05-17T13:59:38.222Z,1.90
2017-05-17T14:02:07.330Z,2.12
2017-05-17T14:04:35.641Z,2.02
2017-05-17T14:07:03.947Z,1.40
2017-05-17T14:09:32.298Z,1.76
2017-05-17T14:12:00.610Z,1.72
2017-05-17T14:14:28.909Z,1.64
2017-05-17T14:16:57.266Z,1.92
2017-05-17T14:19:26.337Z,1.68
2017-05-17T14:21:54.645Z,1.64
2017-05-17T14:24:23.750Z,1.86
2017-05-17T14:26:52.818Z,1.68
2017-05-17T14:29:22.673Z,2.12
2017-05-17T14:31:50.978Z,1.58
2017-05-17T14:34:19.290Z,1.62
2017-05-17T14:36:48.409Z,1.86
2017-05-17T14:39:17.575Z,1.58
2017-05-17T14:41:45.874Z,2.36
2017-05-17T14:44:14.989Z,1.72
2017-05-17T14:46:43.298Z,2.10
2017-05-17T14:49:11.606Z,1.62
2017-05-17T14:51:39.953Z,2.02
2017-05-17T14:54:08.266Z,1.86
2017-05-17T14:56:36.574Z,1.74
2017-05-17T14:59:05.682Z,1.70
2017-05-17T15:01:33.988Z,1.84
2017-05-17T15:04:02.298Z,1.84
2017-05-17T15:06:31.413Z,1.40
2017-05-17T15:09:00.581Z,2.02
2017-05-17T15:11:28.892Z,2.02
2017-05-17T15:13:58.039Z,2.80
2017-05-17T15:16:26.349Z,2.10
2017-05-17T15:18:55.418Z,2.14
2017-05-17T15:21:24.084Z,1.46
2017-05-17T15:23:52.385Z,1.68
2017-05-17T15:26:20.692Z,1.66
2017-05-17T15:28:49.819Z,1.90
2017-05-17T15:31:18.125Z,1.92
2017-05-17T15:33:46.426Z,1.96
2017-05-17T15:36:14.765Z,1.86
2017-05-17T15:38:43.062Z,1.94
2017-05-17T15:41:11.358Z,1.86
2017-05-17T15:43:39.689Z,1.80
2017-05-17T15:46:07.985Z,1.80
2017-05-17T15:48:36.287Z,1.58
2017-05-17T15:51:04.637Z,2.20
2017-05-17T15:53:33.701Z,1.82
2017-05-17T15:56:02.016Z,1.92
2017-05-17T15:58:31.127Z,2.12
2017-05-17T16:00:59.425Z,1.80
2017-05-17T16:03:27.730Z,2.24
2017-05-17T16:05:56.078Z,2.24
2017-05-17T16:08:24.370Z,3.12
2017-05-17T16:10:52.674Z,3.76
2017-05-17T16:13:21.013Z,2.96
2017-05-17T16:15:49.314Z,2.00
2017-05-17T16:18:17.610Z,2.10
2017-05-17T16:20:45.949Z,1.90
2017-05-17T16:23:14.238Z,2.06
2017-05-17T16:25:42.541Z,2.04
2017-05-17T16:28:10.895Z,2.58
2017-05-17T16:30:39.192Z,2.22
2017-05-17T16:33:07.490Z,2.22
2017-05-17T16:35:35.823Z,4.00
2017-05-17T16:38:04.765Z,2.24
2017-05-17T16:40:33.105Z,2.26
2017-05-17T16:43:01.450Z,1.76
2017-05-17T16:45:29.749Z,2.10
2017-05-17T16:47:58.811Z,2.74
2017-05-17T16:50:27.141Z,2.32
2017-05-17T16:52:55.435Z,2.38
2017-05-17T16:55:23.731Z,1.78
2017-05-17T16:57:52.061Z,2.94
2017-05-17T17:00:20.357Z,2.30
2017-05-17T17:02:48.681Z,1.80
2017-05-17T17:05:17.018Z,1.68
2017-05-17T17:07:45.313Z,1.86
2017-05-17T17:10:14.377Z,1.60
2017-05-17T17:12:44.226Z,1.96
2017-05-17T17:15:13.294Z,2.16
2017-05-17T17:17:41.594Z,2.44
2017-05-17T17:20:10.710Z,1.60
2017-05-17T17:22:39.776Z,2.12
2017-05-17T17:25:08.905Z,1.82
2017-05-17T17:27:37.971Z,1.90
2017-05-17T17:30:07.082Z,1.74
2017-05-17T17:32:36.167Z,1.96
2017-05-17T17:35:05.265Z,1.90
2017-05-17T17:37:34.389Z,2.04
2017-05-17T17:40:02.798Z,1.52
2017-05-17T17:42:31.101Z,1.96
2017-05-17T17:44:59.469Z,1.86
2017-05-17T17:47:27.769Z,1.78
2017-05-17T17:49:56.837Z,2.48
2017-05-17T17:52:25.181Z,2.02
2017-05-17T17:54:53.511Z,2.40
2017-05-17T17:57:21.815Z,2.04
2017-05-17T17:59:50.158Z,1.88
2017-05-17T18:02:18.463Z,1.86
2017-05-17T18:04:46.767Z,1.70
2017-05-17T18:07:15.177Z,2.66
2017-05-17T18:09:44.241Z,1.88
2017-05-17T18:12:12.566Z,1.90
2017-05-17T18:14:40.904Z,1.98
2017-05-17T18:17:09.210Z,2.12
2017-05-17T18:19:37.510Z,2.10
2017-05-17T18:22:05.842Z,2.12
2017-05-17T18:24:34.910Z,2.10
2017-05-17T18:27:03.212Z,1.90
2017-05-17T18:29:32.312Z,2.10
2017-05-17T18:32:01.381Z,2.38
2017-05-17T18:34:29.682Z,2.26
2017-05-17T18:36:58.040Z,2.04
2017-05-17T18:39:26.362Z,1.92
2017-05-17T18:41:54.662Z,3.24
2017-05-17T18:44:23.002Z,2.94
2017-05-17T18:46:52.071Z,3.82
2017-05-17T18:49:20.396Z,3.10
2017-05-17T18:51:48.725Z,4.26
2017-05-17T18:54:17.022Z,4.50
2017-05-17T18:56:46.129Z,4.70
2017-05-17T18:59:15.197Z,4.02
2017-05-17T19:01:43.497Z,3.74
2017-05-17T19:04:11.838Z,4.46
2017-05-17T19:06:40.905Z,5.28
2017-05-17T19:09:09.277Z,6.64
2017-05-17T19:11:37.618Z,5.82
2017-05-17T19:14:06.688Z,4.22
2017-05-17T19:16:34.988Z,3.78
2017-05-17T19:19:03.322Z,3.02
2017-05-17T19:21:31.617Z,3.82
2017-05-17T19:24:00.682Z,3.98
2017-05-17T19:26:29.027Z,3.76
2017-05-17T19:28:57.332Z,3.74
2017-05-17T19:31:25.653Z,3.76
2017-05-17T19:33:54.758Z,3.20
2017-05-17T19:36:23.073Z,3.58
2017-05-17T19:38:51.377Z,3.04
2017-05-17T19:41:19.721Z,3.40
2017-05-17T19:43:48.013Z,3.14
2017-05-17T19:46:16.309Z,4.28
2017-05-17T19:48:44.645Z,2.92
2017-05-17T19:51:12.957Z,2.56
2017-05-17T19:53:41.338Z,2.80
2017-05-17T19:56:09.683Z,3.42
2017-05-17T19:58:37.986Z,3.60
2017-05-17T20:01:06.286Z,2.70
2017-05-17T20:03:34.635Z,2.50
2017-05-17T20:06:02.970Z,2.66
2017-05-17T20:08:31.270Z,2.84
2017-05-17T20:10:59.612Z,3.42
2017-05-17T20:13:28.682Z,2.76
2017-05-17T20:15:56.987Z,3.06
2017-05-17T20:18:25.326Z,2.82
2017-05-17T20:20:54.482Z,3.62
2017-05-17T20:23:22.790Z,3.30
2017-05-17T20:25:51.898Z,3.58
2017-05-17T20:28:20.194Z,3.20
2017-05-17T20:30:48.497Z,2.90
2017-05-17T20:33:16.840Z,3.26
2017-05-17T20:35:45.904Z,3.56
2017-05-17T20:38:14.207Z,3.86
2017-05-17T20:40:42.549Z,2.80
2017-05-17T20:43:10.845Z,2.94
2017-05-17T20:45:39.913Z,2.94
2017-05-17T20:48:09.772Z,3.60
2017-05-17T20:50:38.076Z,2.92
2017-05-17T20:53:06.376Z,2.70
2017-05-17T20:55:34.732Z,3.48
2017-05-17T20:58:03.032Z,3.20
2017-05-17T21:00:31.325Z,3.20
2017-05-17T21:02:59.664Z,2.56
2017-05-17T21:05:28.108Z,3.00
2017-05-17T21:07:56.413Z,3.04
2017-05-17T21:10:24.746Z,2.94
2017-05-17T21:12:53.817Z,3.46
2017-05-17T21:15:22.116Z,2.72
2017-05-17T21:17:50.461Z,2.56
2017-05-17T21:20:18.768Z,3.02
2017-05-17T21:22:48.961Z,3.28
2017-05-17T21:25:17.262Z,2.92
2017-05-17T21:27:47.139Z,3.16
2017-05-17T21:30:15.455Z,3.26
2017-05-17T21:32:45.327Z,3.20
2017-05-17T21:35:13.769Z,2.78
2017-05-17T21:37:42.849Z,2.66
2017-05-17T21:40:11.217Z,3.18
2017-05-17T21:42:39.520Z,3.30
2017-05-17T21:45:08.588Z,2.82
2017-05-17T21:47:37.686Z,3.30
2017-05-17T21:50:07.492Z,4.22
2017-05-17T21:52:35.846Z,4.26
2017-05-17T21:55:04.155Z,3.48
2017-05-17T21:57:32.468Z,3.32
2017-05-17T22:00:01.569Z,4.36
2017-05-17T22:02:29.869Z,3.96
2017-05-17T22:04:58.937Z,3.60
2017-05-17T22:07:28.237Z,3.68
2017-05-17T22:09:56.551Z,3.30
2017-05-17T22:12:24.848Z,3.18
2017-05-17T22:14:53.198Z,3.16
2017-05-17T22:17:21.502Z,2.74
2017-05-17T22:19:51.355Z,3.60
2017-05-17T22:22:19.690Z,4.06
2017-05-17T22:24:47.999Z,4.14
2017-05-17T22:27:17.129Z,3.74
2017-05-17T22:29:45.429Z,3.10
2017-05-17T22:32:13.721Z,3.46
2017-05-17T22:34:42.068Z,4.10
2017-05-17T22:37:10.371Z,3.48
2017-05-17T22:39:38.688Z,3.78
2017-05-17T22:42:07.799Z,3.18
2017-05-17T22:44:36.102Z,3.12
2017-05-17T22:47:05.167Z,3.28
2017-05-17T22:49:33.666Z,3.22
2017-05-17T22:52:01.965Z,3.52
2017-05-17T22:54:31.030Z,3.54
2017-05-17T22:57:00.141Z,3.44
2017-05-17T22:59:28.626Z,3.82
2017-05-17T23:01:57.697Z,3.96
2017-05-17T23:04:26.038Z,3.38
2017-05-17T23:06:54.347Z,4.08
2017-05-17T23:09:22.656Z,4.08
2017-05-17T23:11:50.989Z,4.06
2017-05-17T23:14:20.080Z,3.68
2017-05-17T23:16:49.185Z,3.80
2017-05-17T23:19:18.250Z,3.98
2017-05-17T23:21:46.623Z,3.96
2017-05-17T23:24:15.750Z,4.38
2017-05-17T23:26:44.814Z,3.26
2017-05-17T23:29:13.918Z,3.88
2017-05-17T23:31:42.214Z,3.40
2017-05-17T23:34:11.274Z,4.46
2017-05-17T23:36:39.619Z,4.18
2017-05-17T23:39:08.678Z,3.24
2017-05-17T23:41:36.966Z,3.80
2017-05-17T23:44:06.100Z,3.48
2017-05-17T23:46:34.377Z,3.68
2017-05-17T23:49:03.433Z,4.02
2017-05-17T23:51:32.560Z,3.90
2017-05-17T23:54:00.875Z,3.90
2017-05-17T23:56:29.169Z,3.68
2017-05-17T23:58:58.271Z,3.82
